createdAt,value
2023-02-01T00:01:23.625Z,99004.62
2023-02-01T00:03:51.639Z,99000.02
2023-02-01T00:06:21.349Z,98997.98
2023-02-01T00:08:49.329Z,98998.16
2023-02-01T00:11:17.303Z,98993.30
2023-02-01T00:13:45.511Z,98990.92
2023-02-01T00:16:17.361Z,98987.12
2023-02-01T00:18:46.175Z,98989.34
2023-02-01T00:21:15.836Z,98987.86
2023-02-01T00:23:44.948Z,98988.84
2023-02-01T00:26:17.634Z,98988.86
2023-02-01T00:28:46.261Z,98992.64
2023-02-01T00:31:15.994Z,98987.26
2023-02-01T00:33:44.059Z,98986.53
2023-02-01T00:36:12.342Z,98988.36
2023-02-01T00:38:40.629Z,98986.18
2023-02-01T00:41:12.530Z,98984.52
2023-02-01T00:43:40.423Z,98984.59
2023-02-01T00:46:08.704Z,98985.29
2023-02-01T00:48:37.195Z,98980.02
2023-02-01T00:51:09.562Z,98983.17
2023-02-01T00:53:37.596Z,98980.94
2023-02-01T00:56:07.749Z,98981.98
2023-02-01T00:58:36.030Z,98979.21
2023-02-01T01:01:08.971Z,98984.40
2023-02-01T01:03:41.606Z,98986.04
2023-02-01T01:06:12.136Z,98990.70
2023-02-01T01:08:40.216Z,98986.45
2023-02-01T01:11:19.896Z,98986.09
2023-02-01T01:13:49.317Z,98983.66
2023-02-01T01:16:17.434Z,98986.89
2023-02-01T01:18:45.925Z,98991.38
2023-02-01T01:21:15.082Z,98990.52
2023-02-01T01:23:43.624Z,98992.79
2023-02-01T01:26:17.050Z,98993.58
2023-02-01T01:28:45.810Z,98992.38
2023-02-01T01:31:14.911Z,98988.78
2023-02-01T01:33:44.946Z,98986.88
2023-02-01T01:36:13.326Z,98984.56
2023-02-01T01:38:41.579Z,98984.47
2023-02-01T01:41:12.749Z,98983.12
2023-02-01T01:44:28.519Z,98979.95
2023-02-01T01:46:56.713Z,98978.27
2023-02-01T01:49:25.212Z,98980.36
2023-02-01T01:51:55.729Z,98972.31
2023-02-01T01:54:26.974Z,98968.21
2023-02-01T01:56:58.098Z,98964.45
2023-02-01T01:59:26.347Z,98961.98
2023-02-01T02:01:54.411Z,98961.74
2023-02-01T02:04:22.626Z,98960.94
2023-02-01T02:07:01.074Z,98957.05
2023-02-01T02:09:29.125Z,98954.55
2023-02-01T02:11:57.041Z,98952.95
2023-02-01T02:14:24.992Z,98950.33
2023-02-01T02:16:52.990Z,98942.71
2023-02-01T02:19:58.821Z,98937.33
2023-02-01T02:22:37.008Z,98936.83
2023-02-01T02:25:24.299Z,98941.55
2023-02-01T02:28:13.883Z,98942.27
2023-02-01T02:31:18.870Z,98942.52
2023-02-01T02:33:50.207Z,98937.92
2023-02-01T02:36:34.166Z,98938.11
2023-02-01T02:39:11.222Z,98944.25
2023-02-01T02:42:14.965Z,98941.33
2023-02-01T02:45:18.761Z,98942.18
2023-02-01T02:48:19.022Z,98937.73
2023-02-01T02:51:21.676Z,98936.84
2023-02-01T02:54:22.651Z,98932.26
2023-02-01T02:57:09.324Z,98930.00
2023-02-01T02:59:56.070Z,98931.20
2023-02-01T03:02:43.210Z,98935.16
2023-02-01T03:05:11.758Z,98934.27
2023-02-01T03:07:56.444Z,98931.77
2023-02-01T03:10:42.101Z,98935.20
2023-02-01T03:13:15.309Z,98937.88
2023-02-01T03:16:06.384Z,98941.76
2023-02-01T03:18:39.567Z,98942.31
2023-02-01T03:21:11.531Z,98942.01
2023-02-01T03:23:40.012Z,98939.67
2023-02-01T03:26:10.818Z,98938.86
2023-02-01T03:28:40.323Z,98935.41
2023-02-01T03:31:08.984Z,98932.16
2023-02-01T03:33:38.113Z,98931.97
2023-02-01T03:36:27.102Z,98930.08
2023-02-01T03:39:18.096Z,98926.70
2023-02-01T03:41:54.491Z,98925.95
2023-02-01T03:44:22.607Z,98929.48
2023-02-01T03:47:24.210Z,98929.91
2023-02-01T03:50:01.680Z,98925.77
2023-02-01T03:53:04.895Z,98925.65
2023-02-01T03:55:33.779Z,98920.90
2023-02-01T03:58:13.372Z,98923.73
2023-02-01T04:00:41.764Z,98925.21
2023-02-01T04:03:09.880Z,98929.41
2023-02-01T04:05:38.135Z,98929.38
2023-02-01T04:08:08.300Z,98929.38
2023-02-01T04:10:38.331Z,98934.37
2023-02-01T04:13:06.806Z,98929.95
2023-02-01T04:15:35.948Z,98931.23
2023-02-01T04:18:04.099Z,98930.25
2023-02-01T04:20:32.742Z,98928.38
2023-02-01T04:23:03.601Z,98929.55
2023-02-01T04:25:31.686Z,98935.70
2023-02-01T04:28:00.514Z,98937.58
2023-02-01T04:30:29.014Z,98939.13
2023-02-01T04:32:57.072Z,98940.32
2023-02-01T04:35:30.513Z,98937.73
2023-02-01T04:37:58.479Z,98936.68
2023-02-01T04:40:27.289Z,98935.04
2023-02-01T04:42:55.224Z,98935.34
2023-02-01T04:45:23.209Z,98934.70
2023-02-01T04:47:54.300Z,98934.09
2023-02-01T04:50:23.042Z,98935.31
2023-02-01T04:52:51.527Z,98932.42
2023-02-01T04:55:19.855Z,98936.22
2023-02-01T04:57:47.797Z,98936.44
2023-02-01T05:00:16.612Z,98934.38
2023-02-01T05:02:44.717Z,98935.92
2023-02-01T05:05:12.732Z,98934.41
2023-02-01T05:07:40.776Z,98933.58
2023-02-01T05:10:09.558Z,98931.39
2023-02-01T05:12:56.487Z,98927.25
2023-02-01T05:15:24.556Z,98925.44
2023-02-01T05:17:52.805Z,98924.70
2023-02-01T05:20:21.022Z,98922.93
2023-02-01T05:22:49.188Z,98920.48
2023-02-01T05:25:17.317Z,98919.25
2023-02-01T05:27:45.232Z,98914.23
2023-02-01T05:30:13.935Z,98921.15
2023-02-01T05:32:42.266Z,98917.58
2023-02-01T05:35:10.491Z,98923.91
2023-02-01T05:37:41.797Z,98929.59
2023-02-01T05:40:10.597Z,98925.48
2023-02-01T05:42:38.734Z,98927.94
2023-02-01T05:45:08.638Z,98927.63
2023-02-01T05:47:37.149Z,98922.61
2023-02-01T05:50:06.324Z,98924.70
2023-02-01T05:52:34.318Z,98923.69
2023-02-01T05:55:02.458Z,98925.77
2023-02-01T05:57:31.237Z,98928.16
2023-02-01T06:00:00.531Z,98924.08
2023-02-01T06:02:28.987Z,98922.36
2023-02-01T06:04:57.137Z,98921.54
2023-02-01T06:07:25.143Z,98918.48
2023-02-01T06:09:53.125Z,98920.88
2023-02-01T06:12:21.110Z,98915.05
2023-02-01T06:14:49.805Z,98917.45
2023-02-01T06:17:21.783Z,98913.86
2023-02-01T06:19:49.751Z,98914.95
2023-02-01T06:22:17.759Z,98910.83
2023-02-01T06:24:45.759Z,98911.46
2023-02-01T06:27:14.645Z,98913.32
2023-02-01T06:29:42.965Z,98910.05
2023-02-01T06:32:11.569Z,98909.70
2023-02-01T06:34:41.803Z,98908.95
2023-02-01T06:37:14.732Z,98903.55
2023-02-01T06:39:44.387Z,98900.45
2023-02-01T06:42:12.383Z,98904.73
2023-02-01T06:44:41.908Z,98904.55
2023-02-01T06:47:09.991Z,98902.11
2023-02-01T06:49:38.339Z,98909.23
2023-02-01T06:52:06.289Z,98907.58
2023-02-01T06:54:35.206Z,98911.15
2023-02-01T06:57:03.348Z,98905.73
2023-02-01T06:59:31.270Z,98904.30
2023-02-01T07:01:59.209Z,98905.00
2023-02-01T07:04:27.689Z,98902.61
2023-02-01T07:06:55.692Z,98902.08
2023-02-01T07:09:24.761Z,98896.02
2023-02-01T07:11:52.946Z,98890.15
2023-02-01T07:14:20.944Z,98889.79
2023-02-01T07:16:48.921Z,98884.94
2023-02-01T07:19:17.045Z,98883.01
2023-02-01T07:21:46.419Z,98878.64
2023-02-01T07:24:15.785Z,98871.54
2023-02-01T07:26:43.788Z,98866.99
2023-02-01T07:29:11.946Z,98862.29
2023-02-01T07:31:40.047Z,98864.08
2023-02-01T07:34:08.867Z,98868.66
2023-02-01T07:36:38.483Z,98875.64
2023-02-01T07:39:06.781Z,98875.51
2023-02-01T07:41:36.704Z,98873.04
2023-02-01T10:35:01.318Z,98715.54
2023-02-01T10:37:33.178Z,98714.23
2023-02-01T10:40:15.632Z,98712.92
2023-02-01T10:42:46.564Z,98707.98
2023-02-01T10:45:17.605Z,98705.59
2023-02-01T10:47:45.918Z,98697.17
2023-02-01T10:50:41.543Z,98696.48
2023-02-01T10:53:13.271Z,98694.53
2023-02-01T10:55:47.115Z,98695.09
2023-02-01T10:58:32.852Z,98694.77
2023-02-01T11:01:06.307Z,98690.58
2023-02-01T11:04:01.238Z,98687.92
2023-02-01T11:06:31.358Z,98689.34
2023-02-01T11:09:09.265Z,98686.56
2023-02-01T11:11:49.762Z,98681.14
2023-02-01T11:14:19.861Z,98678.81
2023-02-01T11:16:56.893Z,98677.73
2023-02-01T11:19:25.472Z,98675.56
2023-02-01T11:21:59.334Z,98673.61
2023-02-01T11:24:30.233Z,98668.38
2023-02-01T11:26:59.121Z,98666.92
2023-02-01T11:29:37.402Z,98663.42
2023-02-01T11:32:05.697Z,98660.65
2023-02-01T11:34:39.825Z,98659.36
2023-02-01T11:37:18.348Z,98656.88
2023-02-01T11:40:04.958Z,98653.38
2023-02-01T11:42:33.365Z,98657.59
2023-02-01T11:45:38.603Z,98658.12
2023-02-01T11:48:15.087Z,98653.83
2023-02-01T11:51:14.816Z,98653.64
2023-02-01T11:54:01.249Z,98652.44
2023-02-01T11:56:35.963Z,98646.73
2023-02-01T11:59:31.038Z,98645.17
2023-02-01T12:02:19.391Z,98650.27
2023-02-01T12:05:09.535Z,98647.28
2023-02-01T12:07:51.097Z,98647.59
2023-02-01T12:10:23.175Z,98642.95
2023-02-01T12:13:02.345Z,98640.78
2023-02-01T12:16:02.812Z,98639.19
2023-02-01T12:18:46.910Z,98637.70
2023-02-01T12:21:34.965Z,98635.05
2023-02-01T12:24:44.409Z,98632.35
2023-02-01T12:27:34.262Z,98634.34
2023-02-01T12:30:11.435Z,98633.13
2023-02-01T12:33:05.829Z,98630.35
2023-02-01T12:35:49.129Z,98632.55
2023-02-01T12:38:28.019Z,98629.66
2023-02-01T12:41:25.342Z,98628.21
2023-02-01T12:44:00.413Z,98629.95
2023-02-01T12:46:35.228Z,98624.34
2023-02-01T12:49:03.567Z,98624.33
2023-02-01T12:51:37.313Z,98625.33
2023-02-01T12:54:13.231Z,98624.58
2023-02-01T12:56:48.598Z,98621.94
2023-02-01T12:59:51.195Z,98622.28
2023-02-01T13:02:41.548Z,98624.35
2023-02-01T13:05:14.097Z,98625.27
2023-02-01T13:07:59.551Z,98629.15
2023-02-01T13:10:35.301Z,98628.59
2023-02-01T13:13:29.717Z,98630.07
2023-02-01T13:16:06.222Z,98630.19
2023-02-01T13:18:38.134Z,98627.59
2023-02-01T13:21:10.053Z,98628.40
2023-02-01T13:23:39.581Z,98627.05
2023-02-01T13:26:11.072Z,98628.12
2023-02-01T13:28:46.056Z,98629.29
2023-02-01T13:31:50.609Z,98629.02
2023-02-01T13:34:43.615Z,98632.51
2023-02-01T13:37:47.016Z,98634.11
2023-02-01T13:40:31.516Z,98629.83
2023-02-01T13:43:02.238Z,98633.12
2023-02-01T13:45:35.657Z,98627.81
2023-02-01T13:48:05.959Z,98637.40
2023-02-01T13:50:38.350Z,98641.25
2023-02-01T13:53:12.412Z,98643.77
2023-02-01T13:55:47.115Z,98639.85
2023-02-01T13:58:35.191Z,98643.80
2023-02-01T14:01:21.744Z,98642.13
2023-02-01T14:03:58.881Z,98644.37
2023-02-01T14:06:27.535Z,98640.63
2023-02-01T14:09:13.361Z,98641.20
2023-02-01T14:11:53.351Z,98643.23
2023-02-01T14:14:21.405Z,98640.88
2023-02-01T14:16:55.421Z,98644.85
2023-02-01T14:19:43.040Z,98646.64
2023-02-01T14:22:27.046Z,98651.00
2023-02-01T14:24:56.069Z,98648.55
2023-02-01T14:27:29.132Z,98652.30
2023-02-01T14:30:00.554Z,98653.50
2023-02-01T14:32:36.225Z,98654.14
2023-02-01T14:35:27.260Z,98660.80
2023-02-01T14:38:03.699Z,98662.45
2023-02-01T14:40:32.140Z,98658.69
2023-02-01T14:43:00.344Z,98663.08
2023-02-01T14:45:29.117Z,98670.30
2023-02-01T14:48:06.478Z,98669.52
2023-02-01T14:50:43.773Z,98673.07
2023-02-01T14:53:12.512Z,98677.81
2023-02-01T14:55:43.763Z,98675.70
2023-02-01T14:58:44.792Z,98679.80
2023-02-01T15:01:33.561Z,98686.14
2023-02-01T15:04:04.511Z,98690.25
2023-02-01T15:06:42.430Z,98689.32
2023-02-01T15:09:37.413Z,98693.09
2023-02-01T15:12:11.679Z,98696.23
2023-02-01T15:14:50.086Z,98698.80
2023-02-01T15:17:35.174Z,98701.55
2023-02-01T15:20:26.913Z,98702.23
2023-02-01T15:22:58.804Z,98707.70
2023-02-01T15:25:36.344Z,98710.59
2023-02-01T15:28:04.546Z,98712.13
2023-02-01T15:30:34.582Z,98713.31
2023-02-01T15:33:08.567Z,98714.17
2023-02-01T15:35:43.461Z,98714.58
2023-02-01T15:38:29.687Z,98716.02
2023-02-01T15:41:02.631Z,98717.66
2023-02-01T19:18:30.743Z,98748.63
2023-02-01T19:21:06.163Z,98745.98
2023-02-01T19:23:34.422Z,98745.08
2023-02-01T19:26:02.373Z,98746.25
2023-02-01T19:28:30.989Z,98741.63
2023-02-01T19:31:03.955Z,98744.08
2023-02-01T19:33:32.243Z,98739.19
2023-02-01T19:36:01.342Z,98742.90
2023-02-01T19:38:29.599Z,98736.98
2023-02-01T19:40:57.905Z,98737.71
2023-02-01T19:43:25.950Z,98739.94
2023-02-01T19:45:54.389Z,98734.63
2023-02-01T19:48:22.447Z,98742.36
2023-02-01T19:50:50.401Z,98736.58
2023-02-01T19:53:19.575Z,98740.61
2023-02-01T19:55:47.850Z,98740.17
2023-02-01T19:58:16.055Z,98740.27
2023-02-01T20:00:43.161Z,98739.90
2023-02-01T20:03:11.088Z,98744.33
2023-02-01T20:05:39.235Z,98740.11
2023-02-01T20:08:07.326Z,98742.59
2023-02-01T20:10:36.054Z,98739.86
2023-02-01T20:13:04.570Z,98737.88
2023-02-01T20:15:32.557Z,98737.82
2023-02-01T20:18:00.496Z,98739.19
2023-02-01T20:20:29.455Z,98732.65
2023-02-01T20:22:57.924Z,98735.75
2023-02-01T20:25:25.974Z,98731.09
2023-02-01T20:27:55.478Z,98733.86
2023-02-01T20:30:23.742Z,98733.61
2023-02-01T20:32:51.870Z,98733.66
2023-02-01T20:35:19.819Z,98731.70
2023-02-01T20:37:49.063Z,98731.59
2023-02-01T20:40:17.822Z,98729.66
2023-02-01T20:42:45.898Z,98736.21
2023-02-01T20:45:13.900Z,98734.61
2023-02-01T20:47:43.250Z,98734.94
2023-02-01T20:50:11.900Z,98736.61
2023-02-01T20:52:40.378Z,98736.94
2023-02-01T20:55:08.822Z,98739.36
2023-02-01T20:57:37.917Z,98739.60
2023-02-01T21:00:12.645Z,98742.13
2023-02-01T21:02:40.641Z,98743.73
2023-02-01T21:05:09.469Z,98741.83
2023-02-01T21:07:38.756Z,98739.17
2023-02-01T21:10:07.769Z,98742.81
2023-02-01T21:12:39.941Z,98744.05
2023-02-01T21:15:08.684Z,98741.62
2023-02-01T21:17:39.368Z,98742.31
2023-02-01T21:20:08.620Z,98739.59
2023-02-01T21:22:37.423Z,98746.08
2023-02-01T21:25:06.022Z,98747.66
2023-02-01T21:27:34.011Z,98748.83
2023-02-01T21:30:02.347Z,98749.61
2023-02-01T21:32:30.927Z,98750.83
2023-02-01T21:34:58.814Z,98748.13
2023-02-01T21:37:27.210Z,98745.79
2023-02-01T21:39:56.471Z,98748.23
2023-02-01T21:42:26.455Z,98749.55
2023-02-01T21:44:55.262Z,98746.19
2023-02-01T21:47:26.058Z,98747.82
2023-02-01T21:49:54.941Z,98750.66
